EJU19DF LIMC-LGAV
Flight info
| Callsign | EJU19DF |
|---|---|
| Flight time | 1h 53m |
| Altitude | 37000 |
| Route | ROBAS DCT IPDAB DCT LUMAV DCT NIKOL DCT KOFER DCT PINDO DCT SIGFO UM749 ROPOX |
| Aircraft | A320/M-SDE2E3FGHIJ1RWXYZ/LB1 |
Departure
| Time | 2026-05-07 21:03 |
|---|---|
| Airport | Milan Malpensa International Airport (LIMC) |
Arrival
| Time | 2026-05-07 22:57 |
|---|---|
| Airport | Athens Eleftherios Venizelos International Airport (LGAV) |
| Time | Latitude | Longitude | Altitude | Speed | Heading |
|---|---|---|---|---|---|
| 2026-05-07 20:49 | 45.64735 | 8.72136 | 713 ft | 0 kts | 39° |
| 2026-05-07 20:52 | 45.64719 | 8.72119 | 740 ft | 4 kts | 41° |
| 2026-05-07 20:52 | 45.64704 | 8.72093 | 739 ft | 4 kts | 92° |
| 2026-05-07 20:52 | 45.64710 | 8.72063 | 738 ft | 4 kts | 140° |
| 2026-05-07 20:52 | 45.64732 | 8.72051 | 738 ft | 3 kts | 157° |
| 2026-05-07 20:53 | 45.64727 | 8.72054 | 740 ft | 4 kts | 156° |
| 2026-05-07 20:53 | 45.64702 | 8.72064 | 738 ft | 2 kts | 169° |
| 2026-05-07 20:53 | 45.64701 | 8.72064 | 740 ft | 0 kts | 169° |
| 2026-05-07 20:55 | 45.64677 | 8.72071 | 740 ft | 7 kts | 169° |
| 2026-05-07 20:55 | 45.64609 | 8.72089 | 740 ft | 13 kts | 169° |
| 2026-05-07 20:55 | 45.64503 | 8.72118 | 739 ft | 17 kts | 168° |
| 2026-05-07 20:56 | 45.64424 | 8.72207 | 738 ft | 15 kts | 107° |
| 2026-05-07 20:56 | 45.64439 | 8.72361 | 740 ft | 14 kts | 79° |
| 2026-05-07 20:56 | 45.64388 | 8.72434 | 739 ft | 13 kts | 168° |
| 2026-05-07 20:56 | 45.64280 | 8.72464 | 740 ft | 18 kts | 168° |
| 2026-05-07 20:57 | 45.64147 | 8.72502 | 740 ft | 21 kts | 168° |
| 2026-05-07 20:57 | 45.64023 | 8.72544 | 740 ft | 17 kts | 166° |
| 2026-05-07 20:57 | 45.63897 | 8.72580 | 739 ft | 20 kts | 169° |
| 2026-05-07 20:57 | 45.63757 | 8.72620 | 740 ft | 22 kts | 169° |
| 2026-05-07 20:58 | 45.63603 | 8.72661 | 739 ft | 23 kts | 169° |
| 2026-05-07 20:58 | 45.63443 | 8.72706 | 741 ft | 24 kts | 169° |
| 2026-05-07 20:58 | 45.63284 | 8.72750 | 739 ft | 23 kts | 169° |
| 2026-05-07 20:58 | 45.63128 | 8.72792 | 739 ft | 22 kts | 169° |
| 2026-05-07 20:59 | 45.62977 | 8.72834 | 741 ft | 22 kts | 169° |
| 2026-05-07 20:59 | 45.62820 | 8.72877 | 741 ft | 24 kts | 169° |
| 2026-05-07 20:59 | 45.62653 | 8.72923 | 741 ft | 25 kts | 169° |
| 2026-05-07 20:59 | 45.62476 | 8.72972 | 741 ft | 27 kts | 169° |
| 2026-05-07 21:00 | 45.62289 | 8.73024 | 741 ft | 28 kts | 169° |
| 2026-05-07 21:00 | 45.62094 | 8.73076 | 741 ft | 28 kts | 169° |
| 2026-05-07 21:00 | 45.61940 | 8.73119 | 741 ft | 21 kts | 169° |
| 2026-05-07 21:00 | 45.61802 | 8.73158 | 740 ft | 17 kts | 166° |
| 2026-05-07 21:01 | 45.61710 | 8.73269 | 740 ft | 19 kts | 124° |
| 2026-05-07 21:01 | 45.61637 | 8.73424 | 740 ft | 15 kts | 124° |
| 2026-05-07 21:01 | 45.61586 | 8.73559 | 741 ft | 9 kts | 104° |
| 2026-05-07 21:01 | 45.61586 | 8.73643 | 740 ft | 9 kts | 80° |
| 2026-05-07 21:02 | 45.61612 | 8.73731 | 738 ft | 9 kts | 34° |
| 2026-05-07 21:02 | 45.61689 | 8.73717 | 739 ft | 21 kts | 349° |
| 2026-05-07 21:02 | 45.62055 | 8.73616 | 740 ft | 88 kts | 349° |
| 2026-05-07 21:02 | 45.62847 | 8.73397 | 738 ft | 142 kts | 349° |
| 2026-05-07 21:03 | 45.63950 | 8.73095 | 929 ft | 169 kts | 350° |
| 2026-05-07 21:03 | 45.65113 | 8.73046 | 1620 ft | 171 kts | 17° |
| 2026-05-07 21:03 | 45.66095 | 8.74080 | 2014 ft | 189 kts | 61° |
| 2026-05-07 21:03 | 45.66588 | 8.75911 | 2394 ft | 206 kts | 68° |
| 2026-05-07 21:04 | 45.67448 | 8.77602 | 3011 ft | 215 kts | 45° |
| 2026-05-07 21:04 | 45.68550 | 8.79024 | 3856 ft | 213 kts | 39° |
| 2026-05-07 21:04 | 45.69727 | 8.80333 | 4638 ft | 215 kts | 37° |
| 2026-05-07 21:04 | 45.70926 | 8.81631 | 5374 ft | 217 kts | 37° |
| 2026-05-07 21:05 | 45.72071 | 8.83053 | 6088 ft | 221 kts | 54° |
| 2026-05-07 21:05 | 45.72610 | 8.85093 | 6750 ft | 225 kts | 89° |
| 2026-05-07 21:05 | 45.72191 | 8.87296 | 7146 ft | 241 kts | 124° |
| 2026-05-07 21:05 | 45.71182 | 8.89250 | 7813 ft | 247 kts | 127° |
| 2026-05-07 21:06 | 45.70155 | 8.91230 | 8588 ft | 249 kts | 127° |
| 2026-05-07 21:06 | 45.69127 | 8.93237 | 9418 ft | 251 kts | 126° |
| 2026-05-07 21:06 | 45.68092 | 8.95263 | 10204 ft | 253 kts | 126° |
| 2026-05-07 21:06 | 45.67047 | 8.97319 | 10891 ft | 258 kts | 126° |
| 2026-05-07 21:07 | 45.65986 | 8.99410 | 11574 ft | 262 kts | 127° |
| 2026-05-07 21:07 | 45.64910 | 9.01541 | 12246 ft | 269 kts | 125° |
| 2026-05-07 21:07 | 45.64050 | 9.04045 | 12462 ft | 293 kts | 112° |
| 2026-05-07 21:07 | 45.63263 | 9.06856 | 12674 ft | 316 kts | 112° |
| 2026-05-07 21:08 | 45.62426 | 9.09890 | 12847 ft | 339 kts | 112° |
| 2026-05-07 21:08 | 45.61548 | 9.13081 | 13333 ft | 350 kts | 112° |
| 2026-05-07 21:08 | 45.60644 | 9.16337 | 13939 ft | 355 kts | 112° |
| 2026-05-07 21:08 | 45.59722 | 9.19636 | 14531 ft | 360 kts | 113° |
| 2026-05-07 21:09 | 45.58788 | 9.22961 | 15166 ft | 362 kts | 113° |
| 2026-05-07 21:09 | 45.57847 | 9.26315 | 15783 ft | 366 kts | 113° |
| 2026-05-07 21:09 | 45.56897 | 9.29700 | 16389 ft | 369 kts | 113° |
| 2026-05-07 21:09 | 45.55939 | 9.33114 | 17021 ft | 373 kts | 113° |
| 2026-05-07 21:10 | 45.54969 | 9.36565 | 17639 ft | 376 kts | 113° |
| 2026-05-07 21:10 | 45.53987 | 9.40045 | 18248 ft | 380 kts | 113° |
| 2026-05-07 21:10 | 45.52993 | 9.43556 | 18758 ft | 384 kts | 113° |
| 2026-05-07 21:10 | 45.51989 | 9.47102 | 19269 ft | 387 kts | 114° |
| 2026-05-07 21:11 | 45.50978 | 9.50674 | 19775 ft | 391 kts | 114° |
| 2026-05-07 21:11 | 45.49955 | 9.54285 | 20288 ft | 394 kts | 114° |
| 2026-05-07 21:11 | 45.47883 | 9.61583 | 21276 ft | 401 kts | 114° |
| 2026-05-07 21:12 | 45.46833 | 9.65272 | 21767 ft | 404 kts | 114° |
| 2026-05-07 21:12 | 45.45773 | 9.68995 | 22233 ft | 407 kts | 114° |
| 2026-05-07 21:12 | 45.44716 | 9.72696 | 22685 ft | 410 kts | 114° |
| 2026-05-07 21:12 | 45.43635 | 9.76474 | 23131 ft | 414 kts | 114° |
| 2026-05-07 21:13 | 45.42543 | 9.80284 | 23569 ft | 418 kts | 114° |
| 2026-05-07 21:13 | 45.41440 | 9.84128 | 23945 ft | 421 kts | 114° |
| 2026-05-07 21:13 | 45.40316 | 9.88049 | 24316 ft | 424 kts | 114° |
| 2026-05-07 21:13 | 45.39212 | 9.91893 | 24701 ft | 427 kts | 114° |
| 2026-05-07 21:14 | 45.38083 | 9.95810 | 25057 ft | 430 kts | 115° |
| 2026-05-07 21:14 | 45.36926 | 9.99804 | 25413 ft | 433 kts | 115° |
| 2026-05-07 21:14 | 45.35787 | 10.03721 | 25768 ft | 436 kts | 115° |
| 2026-05-07 21:14 | 45.34628 | 10.07709 | 26122 ft | 438 kts | 115° |
| 2026-05-07 21:15 | 45.33462 | 10.11734 | 26461 ft | 441 kts | 115° |
| 2026-05-07 21:15 | 45.32288 | 10.15782 | 26779 ft | 445 kts | 115° |
| 2026-05-07 21:15 | 45.31102 | 10.19860 | 27062 ft | 449 kts | 115° |
| 2026-05-07 21:15 | 45.29903 | 10.23971 | 27370 ft | 452 kts | 115° |
| 2026-05-07 21:16 | 45.28694 | 10.28108 | 27693 ft | 455 kts | 116° |
| 2026-05-07 21:16 | 45.27478 | 10.32270 | 28033 ft | 458 kts | 116° |
| 2026-05-07 21:16 | 45.26250 | 10.36463 | 28350 ft | 461 kts | 116° |
| 2026-05-07 21:16 | 45.25014 | 10.40668 | 28660 ft | 464 kts | 116° |
| 2026-05-07 21:17 | 45.23767 | 10.44901 | 28967 ft | 467 kts | 116° |
| 2026-05-07 21:17 | 45.22509 | 10.49163 | 29231 ft | 471 kts | 116° |
| 2026-05-07 21:17 | 45.21239 | 10.53463 | 29495 ft | 474 kts | 116° |
| 2026-05-07 21:17 | 45.19960 | 10.57791 | 29786 ft | 477 kts | 116° |
| 2026-05-07 21:18 | 45.18671 | 10.62145 | 30072 ft | 480 kts | 116° |
| 2026-05-07 21:18 | 45.17392 | 10.66464 | 30318 ft | 483 kts | 116° |
| 2026-05-07 21:18 | 45.16090 | 10.70855 | 30570 ft | 485 kts | 116° |
| 2026-05-07 21:18 | 45.14776 | 10.75272 | 30817 ft | 487 kts | 116° |
| 2026-05-07 21:19 | 45.13456 | 10.79702 | 31068 ft | 489 kts | 117° |
| 2026-05-07 21:19 | 45.12127 | 10.84145 | 31315 ft | 491 kts | 117° |
| 2026-05-07 21:19 | 45.10795 | 10.88595 | 31646 ft | 490 kts | 117° |
| 2026-05-07 21:19 | 45.09464 | 10.93044 | 31979 ft | 490 kts | 117° |
| 2026-05-07 21:20 | 45.08135 | 10.97482 | 32313 ft | 490 kts | 117° |
| 2026-05-07 21:20 | 45.06804 | 11.01910 | 32631 ft | 489 kts | 117° |
| 2026-05-07 21:20 | 45.05469 | 11.06340 | 32968 ft | 489 kts | 117° |
| 2026-05-07 21:20 | 45.04132 | 11.10761 | 33299 ft | 489 kts | 117° |
| 2026-05-07 21:21 | 45.02793 | 11.15179 | 33584 ft | 489 kts | 118° |
| 2026-05-07 21:21 | 45.01447 | 11.19607 | 33807 ft | 492 kts | 118° |
| 2026-05-07 21:21 | 45.00097 | 11.24053 | 34086 ft | 492 kts | 118° |
| 2026-05-07 21:21 | 44.98749 | 11.28493 | 34356 ft | 492 kts | 118° |
| 2026-05-07 21:22 | 44.97401 | 11.32933 | 34633 ft | 491 kts | 118° |
| 2026-05-07 21:22 | 44.96052 | 11.37364 | 34905 ft | 491 kts | 118° |
| 2026-05-07 21:22 | 44.94700 | 11.41790 | 35179 ft | 490 kts | 118° |
| 2026-05-07 21:22 | 44.93351 | 11.46196 | 35446 ft | 489 kts | 118° |
| 2026-05-07 21:23 | 44.92001 | 11.50594 | 35698 ft | 488 kts | 118° |
| 2026-05-07 21:23 | 44.90651 | 11.54986 | 35931 ft | 488 kts | 118° |
| 2026-05-07 21:23 | 44.89318 | 11.59318 | 36162 ft | 488 kts | 118° |
| 2026-05-07 21:23 | 44.87966 | 11.63700 | 36403 ft | 487 kts | 118° |
| 2026-05-07 21:24 | 44.86615 | 11.68075 | 36631 ft | 486 kts | 118° |
| 2026-05-07 21:24 | 44.85267 | 11.72437 | 36862 ft | 486 kts | 118° |
| 2026-05-07 21:24 | 44.83916 | 11.76800 | 37013 ft | 485 kts | 118° |
| 2026-05-07 21:24 | 44.82570 | 11.81138 | 37034 ft | 483 kts | 118° |
| 2026-05-07 21:25 | 44.79859 | 11.89857 | 37039 ft | 488 kts | 118° |
| 2026-05-07 21:25 | 44.77125 | 11.98613 | 37030 ft | 489 kts | 118° |
| 2026-05-07 21:26 | 44.74383 | 12.07363 | 37023 ft | 489 kts | 118° |
| 2026-05-07 21:26 | 44.71633 | 12.16114 | 37027 ft | 489 kts | 118° |
| 2026-05-07 21:27 | 44.68875 | 12.24859 | 37010 ft | 490 kts | 118° |
| 2026-05-07 21:27 | 44.66107 | 12.33605 | 37019 ft | 490 kts | 118° |
| 2026-05-07 21:28 | 44.63329 | 12.42345 | 37027 ft | 490 kts | 118° |
| 2026-05-07 21:28 | 44.60562 | 12.51018 | 37034 ft | 490 kts | 118° |
| 2026-05-07 21:29 | 44.57768 | 12.59748 | 37031 ft | 490 kts | 118° |
| 2026-05-07 21:29 | 44.54977 | 12.68465 | 37036 ft | 490 kts | 118° |
| 2026-05-07 21:30 | 44.52178 | 12.77173 | 37045 ft | 490 kts | 118° |
| 2026-05-07 21:30 | 44.49373 | 12.85877 | 37043 ft | 490 kts | 118° |
| 2026-05-07 21:31 | 44.46559 | 12.94562 | 37034 ft | 490 kts | 119° |
| 2026-05-07 21:31 | 44.43733 | 13.03241 | 37023 ft | 490 kts | 119° |
| 2026-05-07 21:32 | 44.40907 | 13.11910 | 37030 ft | 490 kts | 119° |
| 2026-05-07 21:32 | 44.38087 | 13.20582 | 37034 ft | 490 kts | 119° |
| 2026-05-07 21:33 | 44.35249 | 13.29237 | 37037 ft | 490 kts | 119° |
| 2026-05-07 21:33 | 44.32857 | 13.36479 | 37040 ft | 490 kts | 120° |
| 2026-05-07 21:34 | 44.29999 | 13.45110 | 37047 ft | 490 kts | 120° |
| 2026-05-07 21:34 | 44.27138 | 13.53744 | 37035 ft | 490 kts | 120° |
| 2026-05-07 21:35 | 44.24295 | 13.62314 | 37036 ft | 490 kts | 120° |
| 2026-05-07 21:35 | 44.21274 | 13.70803 | 37044 ft | 485 kts | 126° |
| 2026-05-07 21:36 | 44.17831 | 13.78904 | 37046 ft | 486 kts | 126° |
| 2026-05-07 21:36 | 44.14396 | 13.87013 | 37014 ft | 486 kts | 126° |
| 2026-05-07 21:37 | 44.10950 | 13.95109 | 37037 ft | 486 kts | 126° |
| 2026-05-07 21:37 | 44.07493 | 14.03183 | 37046 ft | 486 kts | 126° |
| 2026-05-07 21:38 | 44.04032 | 14.11251 | 37052 ft | 486 kts | 127° |
| 2026-05-07 21:38 | 44.00564 | 14.19315 | 37056 ft | 486 kts | 127° |
| 2026-05-07 21:39 | 43.97096 | 14.27367 | 37038 ft | 486 kts | 127° |
| 2026-05-07 21:39 | 43.93623 | 14.35413 | 37051 ft | 486 kts | 127° |
| 2026-05-07 21:40 | 43.90146 | 14.43444 | 37056 ft | 486 kts | 127° |
| 2026-05-07 21:40 | 43.86655 | 14.51460 | 37062 ft | 486 kts | 127° |
| 2026-05-07 21:41 | 43.83162 | 14.59471 | 37064 ft | 486 kts | 127° |
| 2026-05-07 21:41 | 43.79695 | 14.67419 | 37065 ft | 486 kts | 127° |
| 2026-05-07 21:42 | 43.76187 | 14.75411 | 37066 ft | 485 kts | 127° |
| 2026-05-07 21:42 | 43.72680 | 14.83388 | 37068 ft | 485 kts | 127° |
| 2026-05-07 21:43 | 43.69170 | 14.91360 | 37066 ft | 485 kts | 127° |
| 2026-05-07 21:43 | 43.65658 | 14.99320 | 37058 ft | 485 kts | 127° |
| 2026-05-07 21:44 | 43.62134 | 15.07269 | 37061 ft | 485 kts | 127° |
| 2026-05-07 21:44 | 43.58607 | 15.15210 | 37043 ft | 485 kts | 127° |
| 2026-05-07 21:45 | 43.55074 | 15.23140 | 37055 ft | 485 kts | 127° |
| 2026-05-07 21:45 | 43.51537 | 15.31063 | 37048 ft | 485 kts | 127° |
| 2026-05-07 21:46 | 43.47989 | 15.38985 | 37048 ft | 486 kts | 127° |
| 2026-05-07 21:46 | 43.44435 | 15.46888 | 37055 ft | 486 kts | 127° |
| 2026-05-07 21:47 | 43.40877 | 15.54791 | 37061 ft | 486 kts | 127° |
| 2026-05-07 21:47 | 43.37313 | 15.62692 | 37064 ft | 486 kts | 128° |
| 2026-05-07 21:48 | 43.33771 | 15.70525 | 37055 ft | 486 kts | 128° |
| 2026-05-07 21:48 | 43.30196 | 15.78398 | 37046 ft | 485 kts | 128° |
| 2026-05-07 21:49 | 43.26615 | 15.86253 | 37059 ft | 485 kts | 128° |
| 2026-05-07 21:49 | 43.23037 | 15.94091 | 37078 ft | 485 kts | 128° |
| 2026-05-07 21:50 | 43.19458 | 16.01917 | 37064 ft | 484 kts | 128° |
| 2026-05-07 21:50 | 43.15874 | 16.09732 | 37062 ft | 485 kts | 128° |
| 2026-05-07 21:51 | 43.12280 | 16.17542 | 37061 ft | 485 kts | 128° |
| 2026-05-07 21:51 | 43.08677 | 16.25337 | 37063 ft | 485 kts | 128° |
| 2026-05-07 21:52 | 43.05071 | 16.33130 | 37070 ft | 485 kts | 128° |
| 2026-05-07 21:52 | 43.01471 | 16.40917 | 37040 ft | 485 kts | 128° |
| 2026-05-07 21:53 | 42.97863 | 16.48691 | 37055 ft | 484 kts | 128° |
| 2026-05-07 21:53 | 42.94243 | 16.56449 | 37066 ft | 484 kts | 128° |
| 2026-05-07 21:54 | 42.90617 | 16.64189 | 37066 ft | 484 kts | 128° |
| 2026-05-07 21:54 | 42.87017 | 16.71876 | 37058 ft | 484 kts | 128° |
| 2026-05-07 21:55 | 42.83391 | 16.79601 | 37064 ft | 484 kts | 128° |
| 2026-05-07 21:55 | 42.79760 | 16.87308 | 37073 ft | 483 kts | 128° |
| 2026-05-07 21:56 | 42.76119 | 16.95009 | 37078 ft | 483 kts | 128° |
| 2026-05-07 21:56 | 42.72475 | 17.02678 | 37059 ft | 482 kts | 128° |
| 2026-05-07 21:57 | 42.68834 | 17.10343 | 37074 ft | 482 kts | 128° |
| 2026-05-07 21:57 | 42.65196 | 17.18004 | 37074 ft | 482 kts | 128° |
| 2026-05-07 21:58 | 42.61556 | 17.25656 | 37078 ft | 482 kts | 129° |
| 2026-05-07 21:58 | 42.57901 | 17.33293 | 37074 ft | 482 kts | 129° |
| 2026-05-07 21:59 | 42.54241 | 17.40921 | 37052 ft | 482 kts | 129° |
| 2026-05-07 21:59 | 42.50574 | 17.48545 | 37051 ft | 483 kts | 129° |
| 2026-05-07 22:00 | 42.46887 | 17.56175 | 37053 ft | 484 kts | 129° |
| 2026-05-07 22:00 | 42.43226 | 17.63761 | 37040 ft | 485 kts | 129° |
| 2026-05-07 22:01 | 42.39530 | 17.71406 | 37049 ft | 486 kts | 129° |
| 2026-05-07 22:01 | 42.35821 | 17.79045 | 37039 ft | 486 kts | 129° |
| 2026-05-07 22:02 | 42.32096 | 17.86675 | 37046 ft | 486 kts | 129° |
| 2026-05-07 22:02 | 42.28369 | 17.94309 | 37057 ft | 487 kts | 129° |
| 2026-05-07 22:03 | 42.24642 | 18.01935 | 37069 ft | 487 kts | 129° |
| 2026-05-07 22:03 | 42.20906 | 18.09557 | 37065 ft | 487 kts | 129° |
| 2026-05-07 22:04 | 42.17162 | 18.17166 | 37069 ft | 487 kts | 129° |
| 2026-05-07 22:04 | 42.13441 | 18.24721 | 37044 ft | 487 kts | 130° |
| 2026-05-07 22:05 | 42.09682 | 18.32317 | 37049 ft | 487 kts | 130° |
| 2026-05-07 22:05 | 42.05912 | 18.39900 | 37057 ft | 488 kts | 130° |
| 2026-05-07 22:06 | 42.02138 | 18.47484 | 37051 ft | 488 kts | 131° |
| 2026-05-07 22:06 | 41.98356 | 18.55081 | 37047 ft | 489 kts | 131° |
| 2026-05-07 22:07 | 41.94561 | 18.62676 | 37053 ft | 490 kts | 131° |
| 2026-05-07 22:07 | 41.90531 | 18.69984 | 37057 ft | 484 kts | 137° |
| 2026-05-07 22:08 | 41.86261 | 18.76989 | 37027 ft | 485 kts | 138° |
| 2026-05-07 22:08 | 41.81979 | 18.84001 | 37027 ft | 487 kts | 139° |
| 2026-05-07 22:09 | 41.77695 | 18.91003 | 37038 ft | 490 kts | 139° |
| 2026-05-07 22:09 | 41.73355 | 18.98064 | 37042 ft | 492 kts | 139° |
| 2026-05-07 22:10 | 41.69002 | 19.05141 | 37048 ft | 493 kts | 139° |
| 2026-05-07 22:10 | 41.64642 | 19.12228 | 37038 ft | 494 kts | 139° |
| 2026-05-07 22:11 | 41.60271 | 19.19320 | 37042 ft | 495 kts | 139° |
| 2026-05-07 22:11 | 41.55874 | 19.26422 | 37038 ft | 497 kts | 139° |
| 2026-05-07 22:12 | 41.51490 | 19.33491 | 37051 ft | 498 kts | 139° |
| 2026-05-07 22:12 | 41.47056 | 19.40606 | 37070 ft | 499 kts | 139° |
| 2026-05-07 22:13 | 41.42618 | 19.47731 | 37057 ft | 500 kts | 139° |
| 2026-05-07 22:13 | 41.38174 | 19.54865 | 37071 ft | 501 kts | 139° |
| 2026-05-07 22:14 | 41.33710 | 19.61995 | 37071 ft | 502 kts | 139° |
| 2026-05-07 22:14 | 41.29230 | 19.69115 | 37046 ft | 502 kts | 139° |
| 2026-05-07 22:15 | 41.24746 | 19.76241 | 37059 ft | 503 kts | 139° |
| 2026-05-07 22:15 | 41.20257 | 19.83375 | 37066 ft | 504 kts | 139° |
| 2026-05-07 22:16 | 41.15781 | 19.90462 | 37076 ft | 505 kts | 139° |
| 2026-05-07 22:16 | 41.11253 | 19.97589 | 37096 ft | 506 kts | 139° |
| 2026-05-07 22:17 | 41.06724 | 20.04724 | 37099 ft | 506 kts | 139° |
| 2026-05-07 22:17 | 41.02186 | 20.11855 | 37110 ft | 506 kts | 139° |
| 2026-05-07 22:18 | 40.95365 | 20.22533 | 37118 ft | 507 kts | 139° |
| 2026-05-07 22:19 | 40.90808 | 20.29643 | 37115 ft | 507 kts | 139° |
| 2026-05-07 22:19 | 40.86250 | 20.36759 | 37131 ft | 508 kts | 139° |
| 2026-05-07 22:20 | 40.81672 | 20.43868 | 37135 ft | 508 kts | 139° |
| 2026-05-07 22:20 | 40.77092 | 20.50965 | 37136 ft | 508 kts | 139° |
| 2026-05-07 22:21 | 40.72507 | 20.58059 | 37122 ft | 508 kts | 139° |
| 2026-05-07 22:21 | 40.67927 | 20.65145 | 37152 ft | 508 kts | 139° |
| 2026-05-07 22:22 | 40.63367 | 20.72163 | 37164 ft | 508 kts | 139° |
| 2026-05-07 22:22 | 40.58769 | 20.79222 | 37175 ft | 508 kts | 139° |
| 2026-05-07 22:23 | 40.54169 | 20.86275 | 37157 ft | 508 kts | 138° |
| 2026-05-07 22:23 | 40.49567 | 20.93321 | 37160 ft | 509 kts | 138° |
| 2026-05-07 22:24 | 40.45241 | 21.00770 | 37168 ft | 515 kts | 132° |
| 2026-05-07 22:24 | 40.41067 | 21.08406 | 37166 ft | 514 kts | 132° |
| 2026-05-07 22:25 | 40.36884 | 21.16019 | 37171 ft | 514 kts | 132° |
| 2026-05-07 22:25 | 40.32693 | 21.23626 | 37158 ft | 515 kts | 132° |
| 2026-05-07 22:26 | 40.29205 | 21.29946 | 37161 ft | 515 kts | 132° |
| 2026-05-07 22:26 | 40.24996 | 21.37548 | 37165 ft | 516 kts | 132° |
| 2026-05-07 22:27 | 40.20778 | 21.45145 | 37168 ft | 516 kts | 132° |
| 2026-05-07 22:27 | 40.16555 | 21.52746 | 37169 ft | 516 kts | 132° |
| 2026-05-07 22:28 | 40.12329 | 21.60336 | 37146 ft | 516 kts | 132° |
| 2026-05-07 22:28 | 40.08098 | 21.67912 | 37162 ft | 516 kts | 132° |
| 2026-05-07 22:29 | 40.03861 | 21.75478 | 37163 ft | 516 kts | 132° |
| 2026-05-07 22:29 | 39.99626 | 21.83031 | 37150 ft | 516 kts | 131° |
| 2026-05-07 22:30 | 39.95414 | 21.90524 | 37157 ft | 516 kts | 131° |
| 2026-05-07 22:30 | 39.91165 | 21.98054 | 37154 ft | 516 kts | 132° |
| 2026-05-07 22:31 | 39.86913 | 22.05571 | 37152 ft | 515 kts | 132° |
| 2026-05-07 22:31 | 39.82637 | 22.13055 | 37142 ft | 513 kts | 136° |
| 2026-05-07 22:32 | 39.77576 | 22.19395 | 37118 ft | 504 kts | 144° |
| 2026-05-07 22:32 | 39.72375 | 22.25518 | 37111 ft | 505 kts | 145° |
| 2026-05-07 22:33 | 39.67152 | 22.31635 | 37115 ft | 505 kts | 145° |
| 2026-05-07 22:33 | 39.61929 | 22.37745 | 37116 ft | 506 kts | 145° |
| 2026-05-07 22:34 | 39.56705 | 22.43847 | 37124 ft | 506 kts | 145° |
| 2026-05-07 22:34 | 39.51470 | 22.49951 | 37094 ft | 507 kts | 144° |
| 2026-05-07 22:35 | 39.46216 | 22.56055 | 37095 ft | 509 kts | 144° |
| 2026-05-07 22:35 | 39.40940 | 22.62183 | 37012 ft | 511 kts | 144° |
| 2026-05-07 22:35 | 39.38272 | 22.65273 | 35961 ft | 520 kts | 144° |
| 2026-05-07 22:36 | 39.35551 | 22.68416 | 34938 ft | 529 kts | 144° |
| 2026-05-07 22:36 | 39.32801 | 22.71598 | 34142 ft | 531 kts | 144° |
| 2026-05-07 22:36 | 39.30086 | 22.74744 | 33293 ft | 531 kts | 144° |
| 2026-05-07 22:36 | 39.27335 | 22.77931 | 32418 ft | 532 kts | 144° |
| 2026-05-07 22:37 | 39.24577 | 22.81119 | 31498 ft | 533 kts | 143° |
| 2026-05-07 22:37 | 39.21808 | 22.84308 | 30580 ft | 534 kts | 143° |
| 2026-05-07 22:37 | 39.19028 | 22.87487 | 29602 ft | 535 kts | 143° |
| 2026-05-07 22:37 | 39.16261 | 22.90689 | 28603 ft | 534 kts | 142° |
| 2026-05-07 22:38 | 39.13523 | 22.93905 | 27648 ft | 531 kts | 141° |
| 2026-05-07 22:38 | 39.10810 | 22.97122 | 26687 ft | 528 kts | 141° |
| 2026-05-07 22:38 | 39.08131 | 23.00311 | 25989 ft | 520 kts | 140° |
| 2026-05-07 22:38 | 39.05499 | 23.03433 | 25338 ft | 510 kts | 140° |
| 2026-05-07 22:39 | 39.02903 | 23.06493 | 24685 ft | 502 kts | 140° |
| 2026-05-07 22:39 | 39.00344 | 23.09489 | 24033 ft | 493 kts | 140° |
| 2026-05-07 22:39 | 38.97825 | 23.12426 | 23311 ft | 485 kts | 140° |
| 2026-05-07 22:39 | 38.95373 | 23.15278 | 22541 ft | 478 kts | 140° |
| 2026-05-07 22:40 | 38.92889 | 23.18161 | 21817 ft | 472 kts | 140° |
| 2026-05-07 22:40 | 38.90502 | 23.20935 | 21134 ft | 466 kts | 140° |
| 2026-05-07 22:40 | 38.88116 | 23.23713 | 20472 ft | 460 kts | 140° |
| 2026-05-07 22:40 | 38.85759 | 23.26455 | 19835 ft | 454 kts | 140° |
| 2026-05-07 22:41 | 38.83433 | 23.29160 | 19195 ft | 449 kts | 140° |
| 2026-05-07 22:41 | 38.81132 | 23.31840 | 18587 ft | 444 kts | 140° |
| 2026-05-07 22:41 | 38.78862 | 23.34480 | 17915 ft | 439 kts | 140° |
| 2026-05-07 22:41 | 38.76611 | 23.37089 | 17195 ft | 434 kts | 140° |
| 2026-05-07 22:42 | 38.74377 | 23.39674 | 16502 ft | 431 kts | 140° |
| 2026-05-07 22:42 | 38.72165 | 23.42237 | 15848 ft | 427 kts | 140° |
| 2026-05-07 22:42 | 38.69974 | 23.44771 | 15185 ft | 423 kts | 140° |
| 2026-05-07 22:42 | 38.67801 | 23.47278 | 14554 ft | 419 kts | 140° |
| 2026-05-07 22:43 | 38.65640 | 23.49768 | 14159 ft | 419 kts | 140° |
| 2026-05-07 22:43 | 38.63451 | 23.52283 | 13926 ft | 425 kts | 141° |
| 2026-05-07 22:43 | 38.61250 | 23.54812 | 13663 ft | 425 kts | 140° |
| 2026-05-07 22:43 | 38.59054 | 23.57339 | 13403 ft | 423 kts | 140° |
| 2026-05-07 22:44 | 38.56936 | 23.59782 | 13136 ft | 408 kts | 140° |
| 2026-05-07 22:44 | 38.54864 | 23.62171 | 12878 ft | 395 kts | 140° |
| 2026-05-07 22:44 | 38.52864 | 23.64477 | 12744 ft | 380 kts | 140° |
| 2026-05-07 22:44 | 38.50943 | 23.66692 | 12598 ft | 365 kts | 141° |
| 2026-05-07 22:45 | 38.49098 | 23.68814 | 12478 ft | 347 kts | 141° |
| 2026-05-07 22:45 | 38.47366 | 23.70803 | 12287 ft | 325 kts | 141° |
| 2026-05-07 22:45 | 38.45710 | 23.72699 | 11816 ft | 315 kts | 141° |
| 2026-05-07 22:45 | 38.44107 | 23.74532 | 11366 ft | 306 kts | 141° |
| 2026-05-07 22:46 | 38.42533 | 23.76326 | 10791 ft | 302 kts | 141° |
| 2026-05-07 22:46 | 38.40976 | 23.78098 | 10229 ft | 298 kts | 141° |
| 2026-05-07 22:46 | 38.39439 | 23.79847 | 9645 ft | 294 kts | 141° |
| 2026-05-07 22:46 | 38.37916 | 23.81577 | 9127 ft | 293 kts | 141° |
| 2026-05-07 22:47 | 38.36405 | 23.83294 | 8820 ft | 290 kts | 140° |
| 2026-05-07 22:47 | 38.34910 | 23.84997 | 8504 ft | 287 kts | 140° |
| 2026-05-07 22:47 | 38.33430 | 23.86690 | 8172 ft | 285 kts | 140° |
| 2026-05-07 22:47 | 38.31963 | 23.88369 | 7830 ft | 283 kts | 140° |
| 2026-05-07 22:48 | 38.30504 | 23.90036 | 7481 ft | 281 kts | 140° |
| 2026-05-07 22:48 | 38.29053 | 23.91688 | 7131 ft | 279 kts | 140° |
| 2026-05-07 22:48 | 38.27611 | 23.93324 | 6880 ft | 276 kts | 140° |
| 2026-05-07 22:48 | 38.26184 | 23.94942 | 6643 ft | 274 kts | 140° |
| 2026-05-07 22:49 | 38.24778 | 23.96536 | 6402 ft | 274 kts | 140° |
| 2026-05-07 22:49 | 38.23360 | 23.98144 | 6152 ft | 273 kts | 141° |
| 2026-05-07 22:49 | 38.21947 | 23.99745 | 5897 ft | 271 kts | 141° |
| 2026-05-07 22:49 | 38.20548 | 24.01331 | 5650 ft | 267 kts | 141° |
| 2026-05-07 22:50 | 38.19184 | 24.02878 | 5393 ft | 259 kts | 141° |
| 2026-05-07 22:50 | 38.17860 | 24.04378 | 5173 ft | 251 kts | 141° |
| 2026-05-07 22:50 | 38.16574 | 24.05834 | 4925 ft | 244 kts | 141° |
| 2026-05-07 22:50 | 38.15327 | 24.07245 | 4713 ft | 237 kts | 142° |
| 2026-05-07 22:51 | 38.14114 | 24.08616 | 4510 ft | 230 kts | 142° |
| 2026-05-07 22:51 | 38.12844 | 24.09815 | 4180 ft | 226 kts | 157° |
| 2026-05-07 22:51 | 38.11397 | 24.10394 | 3968 ft | 210 kts | 176° |
| 2026-05-07 22:51 | 38.10002 | 24.10365 | 3800 ft | 194 kts | 193° |
| 2026-05-07 22:52 | 38.08760 | 24.09855 | 3607 ft | 185 kts | 207° |
| 2026-05-07 22:52 | 38.07692 | 24.08959 | 3388 ft | 184 kts | 216° |
| 2026-05-07 22:52 | 38.06683 | 24.07994 | 3168 ft | 179 kts | 216° |
| 2026-05-07 22:52 | 38.05705 | 24.07058 | 2918 ft | 173 kts | 216° |
| 2026-05-07 22:53 | 38.04755 | 24.06150 | 2705 ft | 170 kts | 216° |
| 2026-05-07 22:53 | 38.03807 | 24.05244 | 2482 ft | 171 kts | 216° |
| 2026-05-07 22:53 | 38.02856 | 24.04336 | 2241 ft | 169 kts | 217° |
| 2026-05-07 22:53 | 38.01958 | 24.03478 | 2030 ft | 154 kts | 216° |
| 2026-05-07 22:54 | 38.01123 | 24.02681 | 1843 ft | 148 kts | 216° |
| 2026-05-07 22:54 | 38.00308 | 24.01903 | 1644 ft | 144 kts | 217° |
| 2026-05-07 22:54 | 37.99515 | 24.01147 | 1452 ft | 142 kts | 216° |
| 2026-05-07 22:54 | 37.98726 | 24.00395 | 1257 ft | 142 kts | 216° |
| 2026-05-07 22:55 | 37.97939 | 23.99645 | 1062 ft | 142 kts | 217° |
| 2026-05-07 22:55 | 37.97146 | 23.98896 | 875 ft | 142 kts | 219° |
| 2026-05-07 22:55 | 37.96368 | 23.98140 | 681 ft | 140 kts | 218° |
| 2026-05-07 22:55 | 37.95601 | 23.97413 | 484 ft | 138 kts | 216° |
| 2026-05-07 22:56 | 37.94843 | 23.96695 | 318 ft | 136 kts | 217° |
| 2026-05-07 22:56 | 37.94173 | 23.96055 | 289 ft | 98 kts | 217° |
| 2026-05-07 22:56 | 37.93738 | 23.95641 | 279 ft | 68 kts | 217° |
| 2026-05-07 22:56 | 37.93396 | 23.95316 | 287 ft | 55 kts | 217° |
| 2026-05-07 22:57 | 37.93181 | 23.95054 | 297 ft | 34 kts | 243° |
| 2026-05-07 22:57 | 37.93131 | 23.94908 | 300 ft | 10 kts | 246° |
| 2026-05-07 22:57 | 37.93106 | 23.94837 | 300 ft | 10 kts | 246° |
| 2026-05-07 22:57 | 37.93066 | 23.94731 | 303 ft | 16 kts | 233° |
| 2026-05-07 22:58 | 37.92972 | 23.94638 | 302 ft | 18 kts | 216° |
| 2026-05-07 22:58 | 37.92871 | 23.94542 | 302 ft | 16 kts | 216° |
| 2026-05-07 22:58 | 37.92829 | 23.94448 | 303 ft | 13 kts | 294° |
| 2026-05-07 22:58 | 37.92893 | 23.94338 | 301 ft | 18 kts | 307° |
| 2026-05-07 22:59 | 37.92959 | 23.94228 | 301 ft | 12 kts | 307° |
| 2026-05-07 22:59 | 37.92986 | 23.94182 | 301 ft | 0 kts | 308° |
| 2026-05-07 22:59 | 37.93003 | 23.94169 | 302 ft | 5 kts | 354° |
| 2026-05-07 22:59 | 37.93036 | 23.94193 | 304 ft | 6 kts | 36° |
| 2026-05-07 23:00 | 37.93066 | 23.94221 | 303 ft | 5 kts | 37° |
| 2026-05-07 23:00 | 37.93081 | 23.94235 | 301 ft | 1 kts | 38° |